sensor_id;sensor_type;location;lat;lon;timestamp;P1;durP1;ratioP1;P2;durP2;ratioP2
44606;SDS011;30315;46.072;14.474;2023-07-30T00:00:53;4.85;;;4.32;;
44606;SDS011;30315;46.072;14.474;2023-07-30T00:03:21;5.32;;;4.45;;
44606;SDS011;30315;46.072;14.474;2023-07-30T00:05:51;5.22;;;4.38;;
44606;SDS011;30315;46.072;14.474;2023-07-30T00:08:22;9.65;;;4.30;;
44606;SDS011;30315;46.072;14.474;2023-07-30T00:10:49;5.00;;;4.00;;
44606;SDS011;30315;46.072;14.474;2023-07-30T00:13:16;6.57;;;4.70;;
44606;SDS011;30315;46.072;14.474;2023-07-30T00:15:46;5.53;;;4.10;;
44606;SDS011;30315;46.072;14.474;2023-07-30T00:18:14;5.10;;;4.63;;
44606;SDS011;30315;46.072;14.474;2023-07-30T00:20:42;4.93;;;4.53;;
44606;SDS011;30315;46.072;14.474;2023-07-30T00:23:09;4.97;;;4.45;;
44606;SDS011;30315;46.072;14.474;2023-07-30T00:25:36;5.13;;;4.63;;
44606;SDS011;30315;46.072;14.474;2023-07-30T00:28:03;5.28;;;4.20;;
44606;SDS011;30315;46.072;14.474;2023-07-30T00:30:30;4.63;;;4.30;;
44606;SDS011;30315;46.072;14.474;2023-07-30T00:32:57;6.00;;;4.90;;
44606;SDS011;30315;46.072;14.474;2023-07-30T00:35:24;7.55;;;4.68;;
44606;SDS011;30315;46.072;14.474;2023-07-30T00:37:51;5.63;;;4.43;;
44606;SDS011;30315;46.072;14.474;2023-07-30T00:40:18;4.60;;;4.18;;
44606;SDS011;30315;46.072;14.474;2023-07-30T00:42:45;5.40;;;4.53;;
44606;SDS011;30315;46.072;14.474;2023-07-30T00:45:12;5.22;;;4.35;;
44606;SDS011;30315;46.072;14.474;2023-07-30T00:47:40;4.50;;;4.10;;
44606;SDS011;30315;46.072;14.474;2023-07-30T00:50:08;4.85;;;4.45;;
44606;SDS011;30315;46.072;14.474;2023-07-30T00:55:05;5.05;;;4.40;;
44606;SDS011;30315;46.072;14.474;2023-07-30T00:57:34;5.53;;;4.55;;
44606;SDS011;30315;46.072;14.474;2023-07-30T01:00:04;7.70;;;4.40;;
44606;SDS011;30315;46.072;14.474;2023-07-30T01:02:35;6.13;;;4.97;;
44606;SDS011;30315;46.072;14.474;2023-07-30T01:05:03;5.28;;;4.88;;
44606;SDS011;30315;46.072;14.474;2023-07-30T01:07:30;6.05;;;4.78;;
44606;SDS011;30315;46.072;14.474;2023-07-30T01:09:59;5.50;;;5.07;;
44606;SDS011;30315;46.072;14.474;2023-07-30T01:12:28;7.28;;;5.18;;
44606;SDS011;30315;46.072;14.474;2023-07-30T01:14:56;6.07;;;4.70;;
44606;SDS011;30315;46.072;14.474;2023-07-30T01:17:24;5.13;;;4.65;;
44606;SDS011;30315;46.072;14.474;2023-07-30T01:19:55;5.65;;;4.80;;
44606;SDS011;30315;46.072;14.474;2023-07-30T01:22:22;6.50;;;5.05;;
44606;SDS011;30315;46.072;14.474;2023-07-30T01:24:49;5.50;;;5.00;;
44606;SDS011;30315;46.072;14.474;2023-07-30T01:27:24;5.25;;;4.82;;
44606;SDS011;30315;46.072;14.474;2023-07-30T01:29:58;5.55;;;5.05;;
44606;SDS011;30315;46.072;14.474;2023-07-30T01:32:34;6.43;;;4.82;;
44606;SDS011;30315;46.072;14.474;2023-07-30T01:35:02;5.32;;;4.93;;
44606;SDS011;30315;46.072;14.474;2023-07-30T01:40:00;5.50;;;5.10;;
44606;SDS011;30315;46.072;14.474;2023-07-30T01:42:29;6.55;;;5.60;;
44606;SDS011;30315;46.072;14.474;2023-07-30T01:44:57;7.82;;;5.40;;
44606;SDS011;30315;46.072;14.474;2023-07-30T01:47:24;8.65;;;5.20;;
44606;SDS011;30315;46.072;14.474;2023-07-30T01:49:51;8.40;;;5.05;;
44606;SDS011;30315;46.072;14.474;2023-07-30T01:52:18;6.85;;;5.47;;
44606;SDS011;30315;46.072;14.474;2023-07-30T01:54:45;7.78;;;5.45;;
44606;SDS011;30315;46.072;14.474;2023-07-30T01:57:12;5.60;;;5.10;;
44606;SDS011;30315;46.072;14.474;2023-07-30T01:59:39;6.28;;;5.15;;
44606;SDS011;30315;46.072;14.474;2023-07-30T02:02:06;7.32;;;5.68;;
44606;SDS011;30315;46.072;14.474;2023-07-30T02:04:34;6.38;;;5.05;;
44606;SDS011;30315;46.072;14.474;2023-07-30T02:07:01;6.40;;;5.57;;
44606;SDS011;30315;46.072;14.474;2023-07-30T02:09:29;7.05;;;5.28;;
44606;SDS011;30315;46.072;14.474;2023-07-30T02:11:56;6.00;;;5.10;;
44606;SDS011;30315;46.072;14.474;2023-07-30T02:14:23;5.43;;;4.93;;
44606;SDS011;30315;46.072;14.474;2023-07-30T02:16:50;5.32;;;4.82;;
44606;SDS011;30315;46.072;14.474;2023-07-30T02:19:17;5.78;;;4.85;;
44606;SDS011;30315;46.072;14.474;2023-07-30T05:20:30;2.63;;;2.47;;
44606;SDS011;30315;46.072;14.474;2023-07-30T05:22:57;3.40;;;3.13;;
44606;SDS011;30315;46.072;14.474;2023-07-30T05:25:24;3.08;;;2.80;;
44606;SDS011;30315;46.072;14.474;2023-07-30T05:27:51;3.53;;;3.13;;
44606;SDS011;30315;46.072;14.474;2023-07-30T05:30:18;2.83;;;2.63;;
44606;SDS011;30315;46.072;14.474;2023-07-30T05:32:45;3.72;;;2.55;;
44606;SDS011;30315;46.072;14.474;2023-07-30T05:35:12;2.53;;;2.42;;
44606;SDS011;30315;46.072;14.474;2023-07-30T05:37:39;3.00;;;2.80;;
44606;SDS011;30315;46.072;14.474;2023-07-30T05:40:06;3.05;;;2.80;;
44606;SDS011;30315;46.072;14.474;2023-07-30T05:42:33;2.85;;;2.63;;
44606;SDS011;30315;46.072;14.474;2023-07-30T05:45:00;2.95;;;2.75;;
44606;SDS011;30315;46.072;14.474;2023-07-30T05:47:27;2.83;;;2.67;;
44606;SDS011;30315;46.072;14.474;2023-07-30T05:49:54;3.60;;;2.92;;
44606;SDS011;30315;46.072;14.474;2023-07-30T05:52:21;2.80;;;2.60;;
44606;SDS011;30315;46.072;14.474;2023-07-30T05:54:48;3.22;;;3.03;;
44606;SDS011;30315;46.072;14.474;2023-07-30T05:57:15;3.03;;;2.83;;
44606;SDS011;30315;46.072;14.474;2023-07-30T05:59:42;3.00;;;2.80;;
44606;SDS011;30315;46.072;14.474;2023-07-30T06:02:09;2.70;;;2.53;;
44606;SDS011;30315;46.072;14.474;2023-07-30T06:04:35;2.90;;;2.70;;
44606;SDS011;30315;46.072;14.474;2023-07-30T06:07:02;3.05;;;2.70;;
44606;SDS011;30315;46.072;14.474;2023-07-30T06:09:30;3.25;;;2.97;;
44606;SDS011;30315;46.072;14.474;2023-07-30T06:11:57;2.83;;;2.60;;
44606;SDS011;30315;46.072;14.474;2023-07-30T06:14:24;3.15;;;2.95;;
44606;SDS011;30315;46.072;14.474;2023-07-30T06:16:52;3.25;;;3.05;;
44606;SDS011;30315;46.072;14.474;2023-07-30T06:19:20;4.28;;;2.88;;
44606;SDS011;30315;46.072;14.474;2023-07-30T06:21:47;2.95;;;2.75;;
44606;SDS011;30315;46.072;14.474;2023-07-30T06:24:14;2.65;;;2.45;;
44606;SDS011;30315;46.072;14.474;2023-07-30T06:26:41;2.40;;;2.28;;
44606;SDS011;30315;46.072;14.474;2023-07-30T06:29:08;3.72;;;2.88;;
44606;SDS011;30315;46.072;14.474;2023-07-30T06:31:35;2.63;;;2.53;;
44606;SDS011;30315;46.072;14.474;2023-07-30T06:34:02;2.75;;;2.58;;
44606;SDS011;30315;46.072;14.474;2023-07-30T06:36:29;2.33;;;2.22;;
44606;SDS011;30315;46.072;14.474;2023-07-30T06:38:56;2.45;;;2.35;;
44606;SDS011;30315;46.072;14.474;2023-07-30T06:41:23;2.58;;;2.47;;
44606;SDS011;30315;46.072;14.474;2023-07-30T06:43:51;2.83;;;2.63;;
44606;SDS011;30315;46.072;14.474;2023-07-30T06:46:18;2.78;;;2.40;;
44606;SDS011;30315;46.072;14.474;2023-07-30T06:48:45;1.98;;;1.88;;
44606;SDS011;30315;46.072;14.474;2023-07-30T06:51:12;1.98;;;1.88;;
44606;SDS011;30315;46.072;14.474;2023-07-30T06:53:40;2.03;;;1.92;;
44606;SDS011;30315;46.072;14.474;2023-07-30T06:56:07;2.58;;;2.35;;
44606;SDS011;30315;46.072;14.474;2023-07-30T06:58:34;2.35;;;2.25;;
44606;SDS011;30315;46.072;14.474;2023-07-30T07:01:04;3.63;;;2.22;;
44606;SDS011;30315;46.072;14.474;2023-07-30T07:03:31;2.45;;;2.22;;
44606;SDS011;30315;46.072;14.474;2023-07-30T07:05:59;2.75;;;2.13;;
44606;SDS011;30315;46.072;14.474;2023-07-30T07:08:25;2.38;;;2.17;;
44606;SDS011;30315;46.072;14.474;2023-07-30T07:10:53;2.13;;;1.95;;
44606;SDS011;30315;46.072;14.474;2023-07-30T07:13:20;1.92;;;1.83;;
44606;SDS011;30315;46.072;14.474;2023-07-30T07:15:47;2.45;;;2.25;;
44606;SDS011;30315;46.072;14.474;2023-07-30T07:18:14;2.17;;;1.95;;
44606;SDS011;30315;46.072;14.474;2023-07-30T07:20:42;2.00;;;1.90;;
44606;SDS011;30315;46.072;14.474;2023-07-30T07:23:09;2.10;;;2.00;;
44606;SDS011;30315;46.072;14.474;2023-07-30T07:25:39;1.92;;;1.83;;
44606;SDS011;30315;46.072;14.474;2023-07-30T07:30:45;1.83;;;1.73;;
44606;SDS011;30315;46.072;14.474;2023-07-30T07:33:13;1.85;;;1.75;;
44606;SDS011;30315;46.072;14.474;2023-07-30T07:35:40;1.83;;;1.73;;
44606;SDS011;30315;46.072;14.474;2023-07-30T07:38:07;1.92;;;1.83;;
44606;SDS011;30315;46.072;14.474;2023-07-30T07:40:37;1.85;;;1.70;;
44606;SDS011;30315;46.072;14.474;2023-07-30T07:43:08;1.80;;;1.70;;
44606;SDS011;30315;46.072;14.474;2023-07-30T07:45:35;1.90;;;1.70;;
44606;SDS011;30315;46.072;14.474;2023-07-30T07:48:02;1.75;;;1.65;;
44606;SDS011;30315;46.072;14.474;2023-07-30T07:50:29;1.77;;;1.67;;
44606;SDS011;30315;46.072;14.474;2023-07-30T07:52:57;1.75;;;1.65;;
44606;SDS011;30315;46.072;14.474;2023-07-30T07:57:53;1.85;;;1.75;;
44606;SDS011;30315;46.072;14.474;2023-07-30T08:00:20;2.25;;;1.80;;
44606;SDS011;30315;46.072;14.474;2023-07-30T08:02:48;1.85;;;1.75;;
44606;SDS011;30315;46.072;14.474;2023-07-30T08:05:17;1.98;;;1.88;;
44606;SDS011;30315;46.072;14.474;2023-07-30T08:07:46;1.80;;;1.70;;
44606;SDS011;30315;46.072;14.474;2023-07-30T08:10:13;2.10;;;1.90;;
44606;SDS011;30315;46.072;14.474;2023-07-30T08:12:41;1.80;;;1.70;;
44606;SDS011;30315;46.072;14.474;2023-07-30T08:15:08;1.70;;;1.60;;
44606;SDS011;30315;46.072;14.474;2023-07-30T08:17:35;2.47;;;1.75;;
44606;SDS011;30315;46.072;14.474;2023-07-30T08:20:02;1.70;;;1.60;;
44606;SDS011;30315;46.072;14.474;2023-07-30T08:22:30;1.60;;;1.50;;
44606;SDS011;30315;46.072;14.474;2023-07-30T08:24:57;2.22;;;1.73;;
44606;SDS011;30315;46.072;14.474;2023-07-30T08:27:24;1.85;;;1.38;;
44606;SDS011;30315;46.072;14.474;2023-07-30T08:29:51;1.52;;;1.42;;
44606;SDS011;30315;46.072;14.474;2023-07-30T08:32:18;3.42;;;1.80;;
44606;SDS011;30315;46.072;14.474;2023-07-30T08:34:45;3.60;;;1.85;;
44606;SDS011;30315;46.072;14.474;2023-07-30T08:37:13;1.90;;;1.80;;
44606;SDS011;30315;46.072;14.474;2023-07-30T08:39:40;2.58;;;1.85;;
44606;SDS011;30315;46.072;14.474;2023-07-30T08:42:07;2.13;;;1.90;;
44606;SDS011;30315;46.072;14.474;2023-07-30T08:44:34;1.88;;;1.77;;
44606;SDS011;30315;46.072;14.474;2023-07-30T08:47:12;2.38;;;1.55;;
44606;SDS011;30315;46.072;14.474;2023-07-30T08:49:39;1.60;;;1.50;;
44606;SDS011;30315;46.072;14.474;2023-07-30T08:52:10;2.38;;;1.80;;
44606;SDS011;30315;46.072;14.474;2023-07-30T08:54:38;1.60;;;1.50;;
44606;SDS011;30315;46.072;14.474;2023-07-30T08:57:06;1.80;;;1.70;;
44606;SDS011;30315;46.072;14.474;2023-07-30T08:59:37;1.80;;;1.70;;
44606;SDS011;30315;46.072;14.474;2023-07-30T09:02:11;2.75;;;1.73;;
44606;SDS011;30315;46.072;14.474;2023-07-30T09:04:43;1.90;;;1.80;;
44606;SDS011;30315;46.072;14.474;2023-07-30T09:07:15;1.95;;;1.70;;
44606;SDS011;30315;46.072;14.474;2023-07-30T09:09:42;1.90;;;1.80;;
44606;SDS011;30315;46.072;14.474;2023-07-30T09:12:13;3.88;;;2.45;;
44606;SDS011;30315;46.072;14.474;2023-07-30T09:14:41;3.03;;;1.77;;
44606;SDS011;30315;46.072;14.474;2023-07-30T09:17:18;4.95;;;1.90;;
44606;SDS011;30315;46.072;14.474;2023-07-30T09:19:45;5.95;;;2.50;;
44606;SDS011;30315;46.072;14.474;2023-07-30T09:22:30;4.85;;;2.85;;
44606;SDS011;30315;46.072;14.474;2023-07-30T09:25:07;4.22;;;1.73;;
44606;SDS011;30315;46.072;14.474;2023-07-30T09:27:34;2.42;;;2.13;;
44606;SDS011;30315;46.072;14.474;2023-07-30T09:30:02;1.90;;;1.73;;
44606;SDS011;30315;46.072;14.474;2023-07-30T09:32:33;1.95;;;1.75;;
44606;SDS011;30315;46.072;14.474;2023-07-30T09:35:07;3.08;;;1.85;;
44606;SDS011;30315;46.072;14.474;2023-07-30T09:37:37;2.10;;;1.52;;
44606;SDS011;30315;46.072;14.474;2023-07-30T09:40:05;1.63;;;1.58;;
44606;SDS011;30315;46.072;14.474;2023-07-30T09:42:34;3.38;;;1.60;;
44606;SDS011;30315;46.072;14.474;2023-07-30T09:45:04;1.45;;;1.40;;
44606;SDS011;30315;46.072;14.474;2023-07-30T09:47:38;1.85;;;1.75;;
44606;SDS011;30315;46.072;14.474;2023-07-30T09:50:05;3.58;;;2.00;;
44606;SDS011;30315;46.072;14.474;2023-07-30T09:52:33;5.03;;;2.10;;
44606;SDS011;30315;46.072;14.474;2023-07-30T09:55:00;4.60;;;2.00;;
44606;SDS011;30315;46.072;14.474;2023-07-30T09:57:28;2.42;;;1.83;;
44606;SDS011;30315;46.072;14.474;2023-07-30T09:59:55;2.17;;;2.08;;
44606;SDS011;30315;46.072;14.474;2023-07-30T10:02:23;2.47;;;1.83;;
44606;SDS011;30315;46.072;14.474;2023-07-30T10:04:52;1.80;;;1.70;;
44606;SDS011;30315;46.072;14.474;2023-07-30T10:07:23;1.73;;;1.50;;
44606;SDS011;30315;46.072;14.474;2023-07-30T10:09:51;1.73;;;1.63;;
44606;SDS011;30315;46.072;14.474;2023-07-30T10:12:24;2.80;;;1.90;;
44606;SDS011;30315;46.072;14.474;2023-07-30T10:14:54;1.80;;;1.70;;
44606;SDS011;30315;46.072;14.474;2023-07-30T10:17:21;2.03;;;1.80;;
44606;SDS011;30315;46.072;14.474;2023-07-30T10:19:49;1.77;;;1.50;;
44606;SDS011;30315;46.072;14.474;2023-07-30T10:25:02;1.77;;;1.67;;
44606;SDS011;30315;46.072;14.474;2023-07-30T10:27:38;1.83;;;1.58;;
44606;SDS011;30315;46.072;14.474;2023-07-30T10:30:16;1.85;;;1.30;;
44606;SDS011;30315;46.072;14.474;2023-07-30T10:46:11;1.30;;;1.20;;
44606;SDS011;30315;46.072;14.474;2023-07-30T10:48:39;2.28;;;1.50;;
44606;SDS011;30315;46.072;14.474;2023-07-30T10:51:08;2.13;;;1.40;;
44606;SDS011;30315;46.072;14.474;2023-07-30T10:53:37;1.45;;;1.35;;
44606;SDS011;30315;46.072;14.474;2023-07-30T10:56:06;1.30;;;1.20;;
44606;SDS011;30315;46.072;14.474;2023-07-30T10:58:34;1.15;;;1.15;;
44606;SDS011;30315;46.072;14.474;2023-07-30T11:01:02;1.47;;;1.37;;
44606;SDS011;30315;46.072;14.474;2023-07-30T11:03:35;1.35;;;1.23;;
44606;SDS011;30315;46.072;14.474;2023-07-30T11:06:04;1.60;;;1.50;;
44606;SDS011;30315;46.072;14.474;2023-07-30T11:08:38;2.05;;;1.80;;
44606;SDS011;30315;46.072;14.474;2023-07-30T11:11:07;1.67;;;1.58;;
44606;SDS011;30315;46.072;14.474;2023-07-30T11:13:40;3.90;;;1.58;;
44606;SDS011;30315;46.072;14.474;2023-07-30T11:16:15;1.20;;;1.20;;
44606;SDS011;30315;46.072;14.474;2023-07-30T11:18:43;31.58;;;4.55;;
44606;SDS011;30315;46.072;14.474;2023-07-30T11:21:11;42.42;;;5.45;;
44606;SDS011;30315;46.072;14.474;2023-07-30T11:23:43;4.57;;;1.92;;
44606;SDS011;30315;46.072;14.474;2023-07-30T11:26:15;7.78;;;2.20;;
44606;SDS011;30315;46.072;14.474;2023-07-30T11:28:44;8.77;;;1.92;;
44606;SDS011;30315;46.072;14.474;2023-07-30T11:31:12;1.33;;;1.23;;
44606;SDS011;30315;46.072;14.474;2023-07-30T11:33:46;1.20;;;1.10;;
44606;SDS011;30315;46.072;14.474;2023-07-30T11:36:14;3.22;;;1.70;;
44606;SDS011;30315;46.072;14.474;2023-07-30T11:38:43;2.60;;;1.40;;
44606;SDS011;30315;46.072;14.474;2023-07-30T11:41:11;1.20;;;1.20;;
44606;SDS011;30315;46.072;14.474;2023-07-30T11:43:41;1.60;;;1.40;;
44606;SDS011;30315;46.072;14.474;2023-07-30T11:46:13;0.90;;;0.90;;
44606;SDS011;30315;46.072;14.474;2023-07-30T11:48:44;1.50;;;1.40;;
44606;SDS011;30315;46.072;14.474;2023-07-30T11:53:50;1.58;;;1.48;;
44606;SDS011;30315;46.072;14.474;2023-07-30T11:56:19;1.27;;;1.17;;
44606;SDS011;30315;46.072;14.474;2023-07-30T11:58:50;1.48;;;1.23;;
44606;SDS011;30315;46.072;14.474;2023-07-30T12:01:21;1.13;;;1.13;;
44606;SDS011;30315;46.072;14.474;2023-07-30T12:03:53;1.48;;;1.38;;
44606;SDS011;30315;46.072;14.474;2023-07-30T12:06:38;1.40;;;1.30;;
44606;SDS011;30315;46.072;14.474;2023-07-30T12:09:12;1.65;;;1.40;;
44606;SDS011;30315;46.072;14.474;2023-07-30T12:14:28;1.40;;;1.30;;
44606;SDS011;30315;46.072;14.474;2023-07-30T12:17:09;3.30;;;1.30;;
44606;SDS011;30315;46.072;14.474;2023-07-30T12:19:36;1.23;;;1.13;;
44606;SDS011;30315;46.072;14.474;2023-07-30T12:22:03;1.20;;;1.20;;
44606;SDS011;30315;46.072;14.474;2023-07-30T12:24:30;1.17;;;1.08;;
44606;SDS011;30315;46.072;14.474;2023-07-30T12:26:57;1.52;;;1.20;;
44606;SDS011;30315;46.072;14.474;2023-07-30T12:29:27;1.52;;;1.20;;
44606;SDS011;30315;46.072;14.474;2023-07-30T12:31:54;4.30;;;4.00;;
44606;SDS011;30315;46.072;14.474;2023-07-30T12:34:23;2.20;;;2.10;;
44606;SDS011;30315;46.072;14.474;2023-07-30T12:36:51;3.00;;;2.80;;
44606;SDS011;30315;46.072;14.474;2023-07-30T12:39:18;2.13;;;2.03;;
44606;SDS011;30315;46.072;14.474;2023-07-30T12:41:45;2.20;;;2.05;;
44606;SDS011;30315;46.072;14.474;2023-07-30T12:44:12;2.00;;;1.80;;
44606;SDS011;30315;46.072;14.474;2023-07-30T12:46:39;2.10;;;1.90;;
44606;SDS011;30315;46.072;14.474;2023-07-30T12:49:06;1.67;;;1.42;;
44606;SDS011;30315;46.072;14.474;2023-07-30T12:51:33;1.08;;;1.00;;
44606;SDS011;30315;46.072;14.474;2023-07-30T12:54:00;1.10;;;1.10;;
44606;SDS011;30315;46.072;14.474;2023-07-30T12:56:27;1.20;;;1.20;;
44606;SDS011;30315;46.072;14.474;2023-07-30T12:58:54;1.27;;;1.20;;
44606;SDS011;30315;46.072;14.474;2023-07-30T13:01:24;1.27;;;1.10;;
44606;SDS011;30315;46.072;14.474;2023-07-30T13:03:52;0.88;;;0.88;;
44606;SDS011;30315;46.072;14.474;2023-07-30T13:06:21;1.02;;;1.02;;
44606;SDS011;30315;46.072;14.474;2023-07-30T13:08:48;0.95;;;0.95;;
44606;SDS011;30315;46.072;14.474;2023-07-30T13:11:15;1.42;;;1.20;;
44606;SDS011;30315;46.072;14.474;2023-07-30T13:13:42;1.10;;;1.10;;
44606;SDS011;30315;46.072;14.474;2023-07-30T13:16:09;2.40;;;0.93;;
44606;SDS011;30315;46.072;14.474;2023-07-30T13:18:36;0.90;;;0.90;;
44606;SDS011;30315;46.072;14.474;2023-07-30T13:21:03;1.67;;;1.20;;
44606;SDS011;30315;46.072;14.474;2023-07-30T13:23:30;1.10;;;1.10;;
44606;SDS011;30315;46.072;14.474;2023-07-30T13:25:58;1.13;;;1.00;;
44606;SDS011;30315;46.072;14.474;2023-07-30T13:28:26;1.00;;;1.00;;
44606;SDS011;30315;46.072;14.474;2023-07-30T13:30:53;1.17;;;1.10;;
44606;SDS011;30315;46.072;14.474;2023-07-30T13:33:20;0.80;;;0.80;;
44606;SDS011;30315;46.072;14.474;2023-07-30T13:35:47;1.08;;;1.08;;
44606;SDS011;30315;46.072;14.474;2023-07-30T13:38:14;3.28;;;1.00;;
44606;SDS011;30315;46.072;14.474;2023-07-30T13:40:41;0.98;;;0.98;;
44606;SDS011;30315;46.072;14.474;2023-07-30T13:43:08;1.00;;;1.00;;
44606;SDS011;30315;46.072;14.474;2023-07-30T13:45:35;0.75;;;0.75;;
44606;SDS011;30315;46.072;14.474;2023-07-30T13:48:02;1.00;;;1.00;;
44606;SDS011;30315;46.072;14.474;2023-07-30T13:50:29;2.75;;;0.90;;
44606;SDS011;30315;46.072;14.474;2023-07-30T13:52:56;1.00;;;1.00;;
44606;SDS011;30315;46.072;14.474;2023-07-30T13:55:23;0.90;;;0.90;;
44606;SDS011;30315;46.072;14.474;2023-07-30T13:57:50;1.75;;;1.10;;
44606;SDS011;30315;46.072;14.474;2023-07-30T14:00:17;0.88;;;0.88;;
44606;SDS011;30315;46.072;14.474;2023-07-30T14:02:44;0.93;;;0.93;;
44606;SDS011;30315;46.072;14.474;2023-07-30T14:05:11;0.73;;;0.70;;
44606;SDS011;30315;46.072;14.474;2023-07-30T14:07:38;0.80;;;0.80;;
44606;SDS011;30315;46.072;14.474;2023-07-30T14:10:07;0.80;;;0.80;;
44606;SDS011;30315;46.072;14.474;2023-07-30T14:12:35;0.93;;;0.93;;
44606;SDS011;30315;46.072;14.474;2023-07-30T14:15:02;0.95;;;0.95;;
44606;SDS011;30315;46.072;14.474;2023-07-30T14:17:29;1.25;;;1.00;;
44606;SDS011;30315;46.072;14.474;2023-07-30T14:19:56;0.70;;;0.70;;
44606;SDS011;30315;46.072;14.474;2023-07-30T14:22:23;0.68;;;0.68;;
44606;SDS011;30315;46.072;14.474;2023-07-30T14:24:50;0.70;;;0.70;;
44606;SDS011;30315;46.072;14.474;2023-07-30T14:27:17;2.13;;;1.10;;
44606;SDS011;30315;46.072;14.474;2023-07-30T14:29:44;0.93;;;0.93;;
44606;SDS011;30315;46.072;14.474;2023-07-30T14:32:12;1.00;;;0.90;;
44606;SDS011;30315;46.072;14.474;2023-07-30T14:34:39;0.80;;;0.80;;
44606;SDS011;30315;46.072;14.474;2023-07-30T14:37:06;0.73;;;0.73;;
44606;SDS011;30315;46.072;14.474;2023-07-30T14:39:35;0.95;;;0.95;;
44606;SDS011;30315;46.072;14.474;2023-07-30T14:42:02;1.40;;;0.70;;
44606;SDS011;30315;46.072;14.474;2023-07-30T14:44:29;1.02;;;0.90;;
44606;SDS011;30315;46.072;14.474;2023-07-30T14:46:56;1.73;;;0.70;;
44606;SDS011;30315;46.072;14.474;2023-07-30T14:49:24;0.95;;;0.90;;
44606;SDS011;30315;46.072;14.474;2023-07-30T14:51:51;1.08;;;1.05;;
44606;SDS011;30315;46.072;14.474;2023-07-30T14:54:19;0.88;;;0.88;;
44606;SDS011;30315;46.072;14.474;2023-07-30T14:56:46;0.88;;;0.88;;
44606;SDS011;30315;46.072;14.474;2023-07-30T14:59:13;0.98;;;0.98;;
44606;SDS011;30315;46.072;14.474;2023-07-30T15:01:40;1.20;;;1.10;;
44606;SDS011;30315;46.072;14.474;2023-07-30T15:04:07;3.22;;;1.40;;
44606;SDS011;30315;46.072;14.474;2023-07-30T15:06:34;1.05;;;1.05;;
44606;SDS011;30315;46.072;14.474;2023-07-30T15:09:02;1.55;;;1.20;;
44606;SDS011;30315;46.072;14.474;2023-07-30T15:11:29;1.17;;;1.08;;
44606;SDS011;30315;46.072;14.474;2023-07-30T15:13:56;1.15;;;1.10;;
44606;SDS011;30315;46.072;14.474;2023-07-30T15:16:23;1.10;;;1.10;;
44606;SDS011;30315;46.072;14.474;2023-07-30T15:18:50;3.70;;;1.13;;
44606;SDS011;30315;46.072;14.474;2023-07-30T15:21:17;1.00;;;1.00;;
44606;SDS011;30315;46.072;14.474;2023-07-30T15:23:45;2.22;;;0.88;;
44606;SDS011;30315;46.072;14.474;2023-07-30T15:26:12;1.08;;;1.08;;
44606;SDS011;30315;46.072;14.474;2023-07-30T15:28:39;1.50;;;1.40;;
44606;SDS011;30315;46.072;14.474;2023-07-30T15:31:07;1.65;;;1.20;;
44606;SDS011;30315;46.072;14.474;2023-07-30T15:33:34;2.55;;;1.40;;
44606;SDS011;30315;46.072;14.474;2023-07-30T15:36:02;1.83;;;1.30;;
44606;SDS011;30315;46.072;14.474;2023-07-30T15:38:29;1.40;;;1.30;;
44606;SDS011;30315;46.072;14.474;2023-07-30T15:40:57;1.88;;;1.60;;
44606;SDS011;30315;46.072;14.474;2023-07-30T15:43:24;3.30;;;1.63;;
44606;SDS011;30315;46.072;14.474;2023-07-30T15:45:52;1.60;;;1.50;;
44606;SDS011;30315;46.072;14.474;2023-07-30T15:48:20;1.87;;;1.40;;
44606;SDS011;30315;46.072;14.474;2023-07-30T15:50:47;4.72;;;1.60;;
44606;SDS011;30315;46.072;14.474;2023-07-30T15:53:15;29.35;;;4.35;;
44606;SDS011;30315;46.072;14.474;2023-07-30T15:55:42;45.00;;;7.22;;
44606;SDS011;30315;46.072;14.474;2023-07-30T15:58:10;8.63;;;2.53;;
44606;SDS011;30315;46.072;14.474;2023-07-30T16:00:38;1.80;;;1.70;;
44606;SDS011;30315;46.072;14.474;2023-07-30T16:03:04;1.83;;;1.63;;
44606;SDS011;30315;46.072;14.474;2023-07-30T16:05:33;2.55;;;1.50;;
44606;SDS011;30315;46.072;14.474;2023-07-30T16:08:00;2.63;;;1.50;;
44606;SDS011;30315;46.072;14.474;2023-07-30T16:10:27;1.67;;;1.50;;
44606;SDS011;30315;46.072;14.474;2023-07-30T16:12:55;3.88;;;1.85;;
44606;SDS011;30315;46.072;14.474;2023-07-30T16:15:25;7.22;;;1.42;;
44606;SDS011;30315;46.072;14.474;2023-07-30T16:17:53;2.30;;;1.50;;
44606;SDS011;30315;46.072;14.474;2023-07-30T16:20:21;1.30;;;1.20;;
44606;SDS011;30315;46.072;14.474;2023-07-30T16:22:48;1.33;;;1.23;;
44606;SDS011;30315;46.072;14.474;2023-07-30T16:25:16;1.38;;;1.27;;
44606;SDS011;30315;46.072;14.474;2023-07-30T16:27:43;1.17;;;1.10;;
44606;SDS011;30315;46.072;14.474;2023-07-30T16:30:10;1.63;;;1.27;;
44606;SDS011;30315;46.072;14.474;2023-07-30T16:32:38;1.30;;;1.20;;
44606;SDS011;30315;46.072;14.474;2023-07-30T16:35:05;2.88;;;1.30;;
44606;SDS011;30315;46.072;14.474;2023-07-30T16:37:33;1.30;;;1.20;;
44606;SDS011;30315;46.072;14.474;2023-07-30T16:39:59;1.48;;;1.33;;
44606;SDS011;30315;46.072;14.474;2023-07-30T16:42:29;1.55;;;1.45;;
44606;SDS011;30315;46.072;14.474;2023-07-30T16:44:56;1.92;;;1.50;;
44606;SDS011;30315;46.072;14.474;2023-07-30T16:47:23;1.48;;;1.38;;
44606;SDS011;30315;46.072;14.474;2023-07-30T16:49:50;1.80;;;1.70;;
44606;SDS011;30315;46.072;14.474;2023-07-30T16:52:17;1.60;;;1.50;;
44606;SDS011;30315;46.072;14.474;2023-07-30T16:54:45;1.52;;;1.42;;
44606;SDS011;30315;46.072;14.474;2023-07-30T16:57:12;1.80;;;1.70;;
44606;SDS011;30315;46.072;14.474;2023-07-30T16:59:40;1.63;;;1.52;;
44606;SDS011;30315;46.072;14.474;2023-07-30T17:02:07;1.60;;;1.50;;
44606;SDS011;30315;46.072;14.474;2023-07-30T17:04:34;1.70;;;1.60;;
44606;SDS011;30315;46.072;14.474;2023-07-30T17:07:01;1.60;;;1.50;;
44606;SDS011;30315;46.072;14.474;2023-07-30T17:09:29;1.67;;;1.58;;
44606;SDS011;30315;46.072;14.474;2023-07-30T17:11:56;3.20;;;1.90;;
44606;SDS011;30315;46.072;14.474;2023-07-30T17:14:23;1.70;;;1.60;;
44606;SDS011;30315;46.072;14.474;2023-07-30T17:16:50;1.85;;;1.75;;
44606;SDS011;30315;46.072;14.474;2023-07-30T17:19:17;3.83;;;1.45;;
44606;SDS011;30315;46.072;14.474;2023-07-30T17:21:44;1.73;;;1.63;;
44606;SDS011;30315;46.072;14.474;2023-07-30T17:24:12;2.72;;;1.60;;
44606;SDS011;30315;46.072;14.474;2023-07-30T17:26:39;1.48;;;1.38;;
44606;SDS011;30315;46.072;14.474;2023-07-30T17:29:06;1.50;;;1.40;;
44606;SDS011;30315;46.072;14.474;2023-07-30T17:31:33;1.60;;;1.50;;
44606;SDS011;30315;46.072;14.474;2023-07-30T17:34:00;1.77;;;1.67;;
44606;SDS011;30315;46.072;14.474;2023-07-30T17:36:31;1.60;;;1.50;;
44606;SDS011;30315;46.072;14.474;2023-07-30T17:39:01;1.45;;;1.35;;
44606;SDS011;30315;46.072;14.474;2023-07-30T17:41:29;1.50;;;1.40;;
44606;SDS011;30315;46.072;14.474;2023-07-30T17:43:57;1.17;;;1.17;;
44606;SDS011;30315;46.072;14.474;2023-07-30T17:46:24;1.27;;;1.20;;
44606;SDS011;30315;46.072;14.474;2023-07-30T17:48:51;3.65;;;1.27;;
44606;SDS011;30315;46.072;14.474;2023-07-30T17:51:19;2.15;;;1.33;;
44606;SDS011;30315;46.072;14.474;2023-07-30T17:53:46;1.45;;;1.27;;
44606;SDS011;30315;46.072;14.474;2023-07-30T17:56:16;1.27;;;1.17;;
44606;SDS011;30315;46.072;14.474;2023-07-30T17:58:43;1.40;;;1.30;;
44606;SDS011;30315;46.072;14.474;2023-07-30T18:01:10;2.15;;;1.20;;
44606;SDS011;30315;46.072;14.474;2023-07-30T18:03:37;1.15;;;1.13;;
44606;SDS011;30315;46.072;14.474;2023-07-30T18:06:04;1.40;;;1.00;;
44606;SDS011;30315;46.072;14.474;2023-07-30T18:08:31;1.58;;;1.48;;